createdAt,value
2022-11-29T00:01:27.037Z,98438.70
2022-11-29T00:04:48.547Z,98441.29
2022-11-29T00:08:26.270Z,98440.91
2022-11-29T00:12:12.754Z,98440.85
2022-11-29T00:15:41.704Z,98440.29
2022-11-29T00:19:19.220Z,98437.10
2022-11-29T00:22:56.943Z,98437.16
2022-11-29T00:26:34.634Z,98434.86
2022-11-29T00:30:13.006Z,98434.79
2022-11-29T00:33:50.991Z,98435.04
2022-11-29T00:37:27.802Z,98435.82
2022-11-29T00:41:07.446Z,98438.06
2022-11-29T00:44:43.337Z,98437.23
2022-11-29T00:48:39.441Z,98440.41
2022-11-29T00:52:19.908Z,98441.35
2022-11-29T00:55:41.422Z,98439.78
2022-11-29T00:59:38.060Z,98440.63
2022-11-29T01:03:02.053Z,98436.95
2022-11-29T01:06:37.424Z,98433.80
2022-11-29T01:10:15.031Z,98430.67
2022-11-29T01:14:12.196Z,98428.04
2022-11-29T01:17:39.194Z,98424.55
2022-11-29T01:21:18.351Z,98422.89
2022-11-29T01:24:49.198Z,98419.16
2022-11-29T01:28:27.324Z,98414.53
2022-11-29T01:32:04.682Z,98414.63
2022-11-29T01:36:01.796Z,98411.02
2022-11-29T01:39:23.731Z,98412.71
2022-11-29T01:43:01.513Z,98407.46
2022-11-29T01:46:44.746Z,98411.08
2022-11-29T01:50:17.551Z,98405.92
2022-11-29T01:53:55.413Z,98400.77
2022-11-29T01:57:51.520Z,98397.45
2022-11-29T02:01:33.947Z,98399.02
2022-11-29T02:05:17.908Z,98396.30
2022-11-29T02:08:41.503Z,98396.79
2022-11-29T02:12:58.211Z,98396.04
2022-11-29T02:16:26.008Z,98397.16
2022-11-29T02:20:28.525Z,98401.87
2022-11-29T02:24:28.544Z,98401.56
2022-11-29T02:28:13.484Z,98398.38
2022-11-29T02:32:13.355Z,98397.91
2022-11-29T02:36:22.304Z,98406.13
2022-11-29T02:40:22.928Z,98409.91
2022-11-29T02:43:54.945Z,98412.27
2022-11-29T02:47:43.981Z,98414.90
2022-11-29T02:51:28.110Z,98415.03
2022-11-29T02:55:18.092Z,98418.25
2022-11-29T02:59:09.547Z,98424.92
2022-11-29T03:02:59.916Z,98424.50
2022-11-29T03:06:36.216Z,98426.98
2022-11-29T03:10:22.187Z,98427.40
2022-11-29T03:14:23.997Z,98429.52
2022-11-29T03:18:03.950Z,98433.28
2022-11-29T03:21:36.919Z,98438.02
2022-11-29T03:25:36.415Z,98439.15
2022-11-29T03:29:32.850Z,98443.81
2022-11-29T03:32:57.329Z,98440.58
2022-11-29T03:36:57.744Z,98444.27
2022-11-29T03:40:50.542Z,98447.23
2022-11-29T03:44:17.922Z,98449.54
2022-11-29T03:48:13.790Z,98452.68
2022-11-29T03:51:52.064Z,98455.96
2022-11-29T03:55:46.738Z,98451.63
2022-11-29T03:59:14.690Z,98457.80
2022-11-29T04:03:27.416Z,98457.15
2022-11-29T04:07:08.370Z,98459.52
2022-11-29T04:10:34.128Z,98461.89
2022-11-29T04:14:47.118Z,98464.55
2022-11-29T04:18:36.251Z,98468.42
2022-11-29T04:22:40.607Z,98472.79
2022-11-29T04:26:34.632Z,98470.45
2022-11-29T04:30:23.468Z,98473.86
2022-11-29T04:34:28.391Z,98475.94
2022-11-29T04:38:29.164Z,98477.35
2022-11-29T04:42:45.332Z,98475.37
2022-11-29T04:46:21.623Z,98478.63
2022-11-29T04:49:58.291Z,98484.57
2022-11-29T04:53:37.843Z,98481.70
2022-11-29T04:57:17.656Z,98486.59
2022-11-29T05:01:06.134Z,98489.95
2022-11-29T05:04:52.164Z,98494.17
2022-11-29T05:08:48.653Z,98498.39
2022-11-29T05:12:39.592Z,98501.95
2022-11-29T05:16:35.944Z,98514.67
2022-11-29T05:20:38.705Z,98516.55
2022-11-29T05:24:51.607Z,98519.29
2022-11-29T05:28:26.355Z,98522.20
2022-11-29T05:32:45.396Z,98526.09
2022-11-29T05:36:15.216Z,98529.63
2022-11-29T05:40:14.721Z,98530.27
2022-11-29T05:43:46.037Z,98531.45
2022-11-29T05:47:23.113Z,98529.90
2022-11-29T05:51:30.368Z,98536.17
2022-11-29T05:55:33.692Z,98542.10
2022-11-29T05:59:08.577Z,98538.41
2022-11-29T06:03:03.550Z,98541.99
2022-11-29T06:06:42.793Z,98548.64
2022-11-29T06:10:17.997Z,98553.54
2022-11-29T06:13:58.461Z,98556.23
2022-11-29T06:18:06.799Z,98559.27
2022-11-29T06:21:51.147Z,98563.63
2022-11-29T06:25:23.026Z,98568.86
2022-11-29T06:29:25.473Z,98568.87
2022-11-29T06:33:01.186Z,98570.89
2022-11-29T06:36:35.892Z,98568.69
2022-11-29T06:40:05.171Z,98573.09
2022-11-29T06:44:00.140Z,98578.52
2022-11-29T06:48:23.171Z,98579.52
2022-11-29T06:52:05.335Z,98586.81
2022-11-29T06:55:39.870Z,98590.00
2022-11-29T06:59:14.464Z,98591.16
2022-11-29T07:03:06.697Z,98593.46
2022-11-29T07:06:47.999Z,98595.27
2022-11-29T07:10:17.167Z,98595.36
2022-11-29T07:13:47.729Z,98597.36
2022-11-29T07:17:43.367Z,98602.08
2022-11-29T07:21:43.362Z,98603.94
2022-11-29T07:25:32.741Z,98609.54
2022-11-29T07:29:05.477Z,98607.14
2022-11-29T07:32:50.347Z,98609.52
2022-11-29T07:37:02.686Z,98614.60
2022-11-29T07:40:46.591Z,98618.30
2022-11-29T07:44:35.886Z,98620.82
2022-11-29T07:48:17.539Z,98623.31
2022-11-29T07:51:39.394Z,98621.05
2022-11-29T07:55:20.068Z,98623.88
2022-11-29T07:58:54.813Z,98625.01
2022-11-29T08:02:33.648Z,98627.52
2022-11-29T08:06:28.896Z,98624.92
2022-11-29T08:09:50.908Z,98628.11
2022-11-29T08:13:47.032Z,98632.36
2022-11-29T08:17:09.166Z,98628.27
2022-11-29T08:20:46.309Z,98623.47
2022-11-29T08:24:24.159Z,98626.62
2022-11-29T08:28:03.350Z,98626.71
2022-11-29T08:31:39.497Z,98627.33
2022-11-29T08:35:18.814Z,98629.47
2022-11-29T08:39:13.667Z,98631.95
2022-11-29T08:42:57.859Z,98632.75
2022-11-29T08:46:20.042Z,98637.82
2022-11-29T08:50:03.437Z,98638.48
2022-11-29T08:53:41.291Z,98638.95
2022-11-29T08:57:39.848Z,98637.55
2022-11-29T09:01:02.392Z,98637.16
2022-11-29T09:05:01.385Z,98639.33
2022-11-29T09:08:43.561Z,98641.16
2022-11-29T09:12:08.674Z,98643.24
2022-11-29T09:15:43.610Z,98638.05
2022-11-29T09:19:39.320Z,98641.39
2022-11-29T09:23:01.298Z,98645.20
2022-11-29T09:26:57.363Z,98643.09
2022-11-29T09:30:38.249Z,98645.84
2022-11-29T09:33:59.636Z,98643.18
2022-11-29T09:37:56.406Z,98645.66
2022-11-29T09:41:35.073Z,98647.31
2022-11-29T09:45:20.463Z,98643.28
2022-11-29T09:49:20.076Z,98643.21
2022-11-29T09:53:08.113Z,98641.22
2022-11-29T09:56:57.294Z,98645.67
2022-11-29T10:00:20.538Z,98643.75
2022-11-29T10:04:03.547Z,98642.67
2022-11-29T10:07:40.933Z,98640.61
2022-11-29T10:11:25.217Z,98636.53
2022-11-29T10:15:29.397Z,98635.54
2022-11-29T10:19:35.775Z,98639.11
2022-11-29T10:23:23.631Z,98642.48
2022-11-29T10:26:46.516Z,98644.44
2022-11-29T10:30:43.979Z,98640.83
2022-11-29T10:34:15.538Z,98639.52
2022-11-29T10:38:01.574Z,98636.74
2022-11-29T10:41:27.104Z,98631.06
2022-11-29T10:45:15.822Z,98632.19
2022-11-29T10:48:42.346Z,98630.54
2022-11-29T10:52:22.161Z,98625.59
2022-11-29T10:56:26.465Z,98622.15
2022-11-29T11:00:09.983Z,98623.64
2022-11-29T11:03:52.813Z,98617.75
2022-11-29T11:07:35.798Z,98618.59
2022-11-29T11:11:01.919Z,98614.89
2022-11-29T11:15:30.840Z,98615.45
2022-11-29T11:19:32.355Z,98617.19
2022-11-29T11:23:20.983Z,98619.40
2022-11-29T11:26:45.785Z,98616.75
2022-11-29T11:30:24.428Z,98617.27
2022-11-29T11:34:18.056Z,98617.75
2022-11-29T11:37:40.593Z,98613.50
2022-11-29T11:41:53.961Z,98618.13
2022-11-29T11:45:17.063Z,98610.59
2022-11-29T11:49:23.642Z,98612.79
2022-11-29T11:53:23.153Z,98613.63
2022-11-29T11:56:45.068Z,98614.70
2022-11-29T12:04:33.862Z,98619.48
2022-11-29T12:08:08.189Z,98620.18
2022-11-29T12:11:56.848Z,98621.98
2022-11-29T12:15:44.276Z,98623.64
2022-11-29T12:19:19.240Z,98629.34
2022-11-29T12:23:09.501Z,98635.48
2022-11-29T12:26:58.619Z,98634.94
2022-11-29T12:30:51.255Z,98639.34
2022-11-29T12:34:24.988Z,98631.85
2022-11-29T12:37:53.962Z,98630.42
2022-11-29T12:41:54.342Z,98634.16
2022-11-29T12:45:33.472Z,98633.74
2022-11-29T12:49:17.365Z,98626.85
2022-11-29T12:52:58.259Z,98631.86
2022-11-29T12:56:20.727Z,98633.17
2022-11-29T13:00:05.999Z,98639.02
2022-11-29T13:03:49.517Z,98641.07
2022-11-29T13:07:36.182Z,98640.30
2022-11-29T13:11:31.745Z,98638.52
2022-11-29T13:15:17.955Z,98643.92
2022-11-29T13:18:55.769Z,98647.77
2022-11-29T13:22:51.216Z,98653.77
2022-11-29T13:26:14.749Z,98657.61
2022-11-29T13:30:15.074Z,98665.98
2022-11-29T13:34:18.922Z,98666.30
2022-11-29T13:38:26.955Z,98667.83
2022-11-29T13:42:05.325Z,98668.76
2022-11-29T13:45:44.517Z,98674.18
2022-11-29T13:49:57.839Z,98677.44
2022-11-29T13:53:48.276Z,98683.27
2022-11-29T13:57:10.631Z,98684.30
2022-11-29T14:01:10.533Z,98690.63
2022-11-29T14:04:37.360Z,98689.74
2022-11-29T14:09:17.695Z,98692.31
2022-11-29T14:12:41.666Z,98689.58
2022-11-29T14:16:42.628Z,98688.95
2022-11-29T14:20:22.927Z,98691.58
2022-11-29T14:23:46.852Z,98689.05
2022-11-29T14:27:23.145Z,98689.57
2022-11-29T14:31:48.601Z,98692.14
2022-11-29T14:35:10.184Z,98695.31
2022-11-29T14:38:58.753Z,98699.86
2022-11-29T14:42:27.669Z,98708.59
2022-11-29T14:46:15.754Z,98714.55
2022-11-29T14:50:03.416Z,98712.27
2022-11-29T14:53:33.720Z,98712.17
2022-11-29T14:57:50.541Z,98719.36
2022-11-29T15:01:12.735Z,98723.38
2022-11-29T15:04:52.351Z,98729.40
2022-11-29T15:08:41.929Z,98725.02
2022-11-29T15:12:14.460Z,98728.39
2022-11-29T15:16:31.301Z,98725.98
2022-11-29T15:20:02.257Z,98723.06
2022-11-29T15:23:41.091Z,98722.80
2022-11-29T15:27:12.778Z,98727.70
2022-11-29T15:30:48.954Z,98730.39
2022-11-29T15:34:38.206Z,98729.23
2022-11-29T15:38:02.517Z,98726.55
2022-11-29T15:41:42.034Z,98727.73
2022-11-29T15:45:32.517Z,98725.47
2022-11-29T15:49:17.402Z,98725.47
2022-11-29T15:52:39.391Z,98730.75
2022-11-29T15:56:29.648Z,98730.48
2022-11-29T16:00:21.240Z,98737.02
2022-11-29T16:03:45.105Z,98741.52
2022-11-29T16:07:40.007Z,98749.56
2022-11-29T16:11:23.962Z,98751.48
2022-11-29T16:15:00.212Z,98754.06
2022-11-29T16:18:25.527Z,98752.11
2022-11-29T16:22:13.607Z,98752.19
2022-11-29T16:26:09.845Z,98754.36
2022-11-29T16:29:54.424Z,98755.03
2022-11-29T16:33:37.155Z,98758.44
2022-11-29T16:37:24.874Z,98757.31
2022-11-29T16:41:02.423Z,98759.42
2022-11-29T16:44:49.086Z,98769.37
2022-11-29T16:48:25.643Z,98769.94
2022-11-29T16:51:50.693Z,98771.65
2022-11-29T16:55:45.592Z,98774.52
2022-11-29T16:59:24.913Z,98777.66
2022-11-29T17:03:08.977Z,98772.52
2022-11-29T17:06:31.382Z,98775.23
2022-11-29T17:10:16.461Z,98773.02
2022-11-29T17:13:47.815Z,98775.29
2022-11-29T17:17:23.867Z,98782.15
2022-11-29T17:21:01.819Z,98782.74
2022-11-29T17:24:43.538Z,98785.30
2022-11-29T17:28:36.003Z,98785.53
2022-11-29T17:31:57.794Z,98784.73
2022-11-29T17:35:35.549Z,98786.27
2022-11-29T17:39:34.569Z,98784.21
2022-11-29T17:42:57.419Z,98788.58
2022-11-29T17:46:53.582Z,98790.73
2022-11-29T17:50:15.134Z,98797.49
2022-11-29T17:54:11.559Z,98803.43
2022-11-29T17:57:52.240Z,98805.98
2022-11-29T18:01:16.013Z,98805.00
2022-11-29T18:04:51.548Z,98806.45
2022-11-29T18:08:28.935Z,98814.14
2022-11-29T18:12:25.771Z,98811.29
2022-11-29T18:15:47.366Z,98812.14
2022-11-29T18:19:26.025Z,98814.36
2022-11-29T18:23:21.549Z,98808.52
2022-11-29T18:26:43.658Z,98806.95
2022-11-29T18:30:20.756Z,98806.53
2022-11-29T18:34:01.216Z,98811.79
2022-11-29T18:38:12.930Z,98812.30
2022-11-29T18:41:22.011Z,98810.64
2022-11-29T18:44:58.802Z,98811.15
2022-11-29T18:48:34.290Z,98811.19
2022-11-29T18:52:11.604Z,98811.39
2022-11-29T18:55:59.876Z,98808.20
2022-11-29T18:59:29.727Z,98805.65
2022-11-29T19:03:04.809Z,98804.42
2022-11-29T19:07:01.249Z,98806.22
2022-11-29T19:10:22.932Z,98810.38
2022-11-29T19:14:20.507Z,98810.04
2022-11-29T19:17:43.484Z,98816.02
2022-11-29T19:21:39.373Z,98812.80
2022-11-29T19:25:01.524Z,98812.65
2022-11-29T19:28:59.919Z,98816.42
2022-11-29T19:32:40.822Z,98814.55
2022-11-29T19:36:11.978Z,98814.01
2022-11-29T19:39:40.366Z,98821.27
2022-11-29T19:43:18.347Z,98822.96
2022-11-29T19:46:55.813Z,98823.83
2022-11-29T19:50:33.271Z,98821.85
2022-11-29T19:54:29.976Z,98830.21
2022-11-29T19:57:52.391Z,98833.79
2022-11-29T20:01:39.681Z,98831.93
2022-11-29T20:05:08.769Z,98835.52
2022-11-29T20:08:48.869Z,98835.87
2022-11-29T20:12:42.178Z,98838.70
2022-11-29T20:16:26.271Z,98841.32
2022-11-29T20:19:48.002Z,98843.84
2022-11-29T20:23:25.683Z,98839.13
2022-11-29T20:27:03.183Z,98843.93
2022-11-29T20:30:41.121Z,98850.77
2022-11-29T20:34:20.835Z,98855.04
2022-11-29T20:38:11.737Z,98857.13
2022-11-29T20:41:56.761Z,98861.03
2022-11-29T20:45:19.665Z,98865.25
2022-11-29T20:49:00.423Z,98865.40
2022-11-29T20:52:44.790Z,98863.63
2022-11-29T20:56:12.296Z,98859.33
2022-11-29T21:00:12.597Z,98853.88
2022-11-29T21:03:34.256Z,98854.90
2022-11-29T21:07:30.777Z,98855.11
2022-11-29T21:11:11.891Z,98851.38
2022-11-29T21:14:34.021Z,98852.27
2022-11-29T21:18:25.091Z,98857.00
2022-11-29T21:22:14.788Z,98860.35
2022-11-29T21:25:37.083Z,98864.89
2022-11-29T21:29:23.105Z,98866.69
2022-11-29T21:32:52.918Z,98869.04
2022-11-29T21:36:55.870Z,98869.38
2022-11-29T21:40:17.416Z,98868.60
2022-11-29T21:44:06.430Z,98870.08
2022-11-29T21:47:32.937Z,98870.30
2022-11-29T21:51:12.068Z,98877.16
2022-11-29T21:55:07.548Z,98876.85
2022-11-29T21:58:31.362Z,98879.92
2022-11-29T22:02:07.466Z,98876.66
2022-11-29T22:05:44.905Z,98877.49
2022-11-29T22:09:22.248Z,98880.89
2022-11-29T22:13:19.187Z,98880.89
2022-11-29T22:16:54.193Z,98876.13
2022-11-29T22:20:19.068Z,98870.53
2022-11-29T22:23:55.847Z,98873.58
2022-11-29T22:27:52.831Z,98873.04
2022-11-29T22:31:14.361Z,98874.85
2022-11-29T22:35:12.988Z,98873.79
2022-11-29T22:38:35.561Z,98877.15
2022-11-29T22:42:12.747Z,98876.67
2022-11-29T22:46:14.898Z,98878.11
2022-11-29T22:49:55.589Z,98877.10
2022-11-29T22:53:17.850Z,98877.95
2022-11-29T22:56:55.047Z,98880.51
2022-11-29T23:00:33.793Z,98875.09
2022-11-29T23:04:29.204Z,98872.89
2022-11-29T23:07:55.124Z,98872.72
2022-11-29T23:11:30.062Z,98875.20
2022-11-29T23:15:06.410Z,98873.70
2022-11-29T23:19:02.997Z,98876.08
2022-11-29T23:22:24.565Z,98874.48
2022-11-29T23:26:02.837Z,98873.13
2022-11-29T23:29:58.743Z,98874.64
2022-11-29T23:33:39.184Z,98871.02
2022-11-29T23:37:00.336Z,98869.84
2022-11-29T23:40:57.449Z,98871.36
2022-11-29T23:44:38.116Z,98870.34
2022-11-29T23:48:18.801Z,98865.08
2022-11-29T23:51:40.516Z,98865.42
2022-11-29T23:55:19.933Z,98868.07
2022-11-29T23:58:55.796Z,98872.72
